Time;durP1;ratioP1;P1;durP2;ratioP2;P2;SDS_P1;SDS_P2;PMS_P1;PMS_P2;Temp;Humidity;BMP_temperature;BMP_pressure;BME280_temperature;BME280_humidity;BME280_pressure;Samples;Min_cycle;Max_cycle;Signal;HPM_P1;HPM_P2
2024/03/19 00:00:53;;;;;;;36.90;23.70;;;;;;;0.73;89.21;100551.00;103358;1252;138588;-71
2024/03/19 00:03:38;;;;;;;33.70;23.30;;;;;;;0.72;89.29;100552.69;103519;1253;97826;-71
2024/03/19 00:06:03;;;;;;;;;;;;;;;0.70;89.22;100555.73;103437;1254;138642;-71
2024/03/19 00:08:30;;;;;;;36.40;22.10;;;;;;;0.68;89.35;100555.20;103656;1251;97804;-71
2024/03/19 00:10:56;;;;;;;32.80;22.30;;;;;;;0.68;89.49;100553.98;103515;1255;111844;-71
2024/03/19 00:13:22;;;;;;;;;;;;;;;0.67;89.48;100553.30;103357;1252;138698;-71
2024/03/19 00:15:50;;;;;;;32.00;21.20;;;;;;;0.66;89.48;100551.40;103705;1255;98333;-72
2024/03/19 00:18:17;;;;;;;33.10;22.00;;;;;;;0.63;89.48;100553.60;103330;1252;139744;-71
2024/03/19 00:20:44;;;;;;;32.40;22.20;;;;;;;0.63;89.40;100552.05;103490;1255;97863;-72
2024/03/19 00:23:08;;;;;;;;;;;;;;;0.63;89.35;100553.77;103552;1255;111245;-72
2024/03/19 00:25:35;;;;;;;29.80;20.00;;;;;;;0.60;89.42;100558.02;103320;1252;124478;-71
2024/03/19 00:28:01;;;;;;;28.70;20.60;;;;;;;0.59;89.47;100556.30;103553;1255;98349;-72
2024/03/19 00:30:29;;;;;;;29.30;20.50;;;;;;;0.58;89.48;100555.77;103540;1253;138601;-71
2024/03/19 00:32:55;;;;;;;31.90;21.60;;;;;;;0.58;89.34;100556.63;103480;1256;97837;-72
2024/03/19 00:35:20;;;;;;;;;;;;;;;0.56;89.15;100556.77;103626;1255;110711;-71
2024/03/19 00:37:50;;;;;;;34.10;22.80;;;;;;;0.51;89.13;100556.00;103413;1251;124491;-71
2024/03/19 00:40:16;;;;;;;34.60;22.40;;;;;;;0.48;88.98;100553.91;102811;1253;1002843;-70
2024/03/19 00:42:44;;;;;;;31.60;20.90;;;;;;;0.44;89.02;100555.06;103388;1255;139064;-70
2024/03/19 00:45:11;;;;;;;33.10;21.80;;;;;;;0.42;89.04;100552.47;103500;1255;97812;-72
2024/03/19 00:47:38;;;;;;;33.90;22.30;;;;;;;0.40;89.11;100551.76;103566;1255;110978;-70
2024/03/19 00:50:06;;;;;;;34.90;22.60;;;;;;;0.39;89.08;100556.20;103337;1251;138470;-72
2024/03/19 00:52:33;;;;;;;34.30;22.30;;;;;;;0.37;89.04;100558.91;103873;1255;97697;-72
2024/03/19 00:54:59;;;;;;;36.00;23.30;;;;;;;0.35;89.22;100556.64;103378;1253;138559;-73
2024/03/19 00:57:26;;;;;;;35.50;23.00;;;;;;;0.35;89.50;100559.71;103538;1255;97784;-71
2024/03/19 00:59:52;;;;;;;33.80;22.90;;;;;;;0.34;89.35;100557.14;103572;1255;111734;-71
2024/03/19 01:02:18;;;;;;;35.10;23.50;;;;;;;0.33;89.25;100560.53;103491;1257;138832;-70
2024/03/19 01:04:43;;;;;;;;;;;;;;;0.31;89.24;100557.09;103646;1251;97810;-70
2024/03/19 01:07:10;;;;;;;37.10;24.20;;;;;;;0.26;89.16;100557.36;103620;1255;124359;-71
2024/03/19 01:09:35;;;;;;;;;;;;;;;0.23;89.29;100558.88;103601;1256;97820;-70
2024/03/19 01:12:01;;;;;;;36.60;24.40;;;;;;;0.17;89.21;100560.48;103565;1251;125242;-70
2024/03/19 01:14:28;;;;;;;37.80;25.00;;;;;;;0.13;89.29;100560.59;103543;1254;106936;-70
2024/03/19 01:16:54;;;;;;;36.00;24.80;;;;;;;0.10;89.39;100565.00;103693;1254;97842;-70
2024/03/19 01:19:19;;;;;;;;;;;;;;;0.09;89.61;100568.91;103610;1255;138179;-71
2024/03/19 01:21:46;;;;;;;33.60;23.30;;;;;;;0.05;89.65;100572.27;103471;1253;97801;-72
2024/03/19 01:24:12;;;;;;;36.20;24.50;;;;;;;0.01;89.58;100568.97;103355;1255;139002;-72
2024/03/19 01:26:38;;;;;;;37.70;24.20;;;;;;;-0.02;89.62;100570.97;103454;1255;108064;-72
2024/03/19 01:29:05;;;;;;;36.10;24.40;;;;;;;-0.03;89.76;100572.48;103577;1255;101521;-73
2024/03/19 01:31:29;;;;;;;;;;;;;;;-0.04;89.78;100572.30;103663;1256;138493;-71
2024/03/19 01:33:56;;;;;;;35.20;23.20;;;;;;;-0.06;89.91;100574.99;103505;1257;97820;-71
2024/03/19 01:36:20;;;;;;;;;;;;;;;-0.08;89.91;100572.23;103506;1251;138594;-72
2024/03/19 01:38:46;;;;;;;39.30;25.30;;;;;;;-0.10;89.86;100569.80;103514;1257;107609;-71
2024/03/19 01:41:16;;;;;;;33.50;23.00;;;;;;;-0.12;90.18;100570.98;103586;1251;98333;-72
2024/03/19 01:43:45;;;;;;;39.90;25.40;;;;;;;-0.11;90.09;100567.23;102987;1255;1002990;-72
2024/03/19 01:46:26;;;;;;;38.20;25.40;;;;;;;-0.11;90.28;100571.85;103509;1257;97831;-71
2024/03/19 01:48:53;;;;;;;35.50;24.80;;;;;;;-0.08;90.33;100574.80;103386;1252;138321;-71
2024/03/19 01:51:20;;;;;;;33.60;23.90;;;;;;;-0.08;90.41;100575.66;103571;1251;107127;-71
2024/03/19 01:53:47;;;;;;;35.20;24.60;;;;;;;-0.04;90.60;100572.64;103598;1257;98452;-70
2024/03/19 01:56:14;;;;;;;37.00;24.00;;;;;;;0.00;90.77;100579.03;103642;1257;138840;-70
2024/03/19 01:58:41;;;;;;;34.40;23.80;;;;;;;0.05;90.76;100579.63;103590;1251;98907;-71
2024/03/19 02:01:07;;;;;;;36.00;22.00;;;;;;;0.10;90.89;100583.63;103563;1256;138241;-71
2024/03/19 02:03:34;;;;;;;33.40;23.10;;;;;;;0.14;90.79;100583.35;103546;1251;107415;-71
2024/03/19 02:06:01;;;;;;;32.80;22.50;;;;;;;0.19;90.89;100585.48;103494;1256;139567;-71
2024/03/19 02:08:27;;;;;;;34.90;21.80;;;;;;;0.23;90.89;100583.84;103582;1255;108982;-71
2024/03/19 02:10:54;;;;;;;31.40;21.90;;;;;;;0.28;90.82;100583.05;103593;1251;98557;-71
2024/03/19 02:13:20;;;;;;;32.10;22.30;;;;;;;0.31;90.67;100583.95;103495;1251;138160;-71
2024/03/19 02:15:47;;;;;;;31.60;21.70;;;;;;;0.33;90.53;100582.60;103444;1253;108656;-71
2024/03/19 02:18:13;;;;;;;29.10;20.00;;;;;;;0.35;90.49;100585.36;103382;1256;138485;-71
2024/03/19 02:20:39;;;;;;;28.10;19.60;;;;;;;0.37;90.47;100588.33;103489;1254;107798;-71
2024/03/19 02:23:04;;;;;;;;;;;;;;;0.38;90.33;100584.92;103565;1257;97848;-71
2024/03/19 02:25:30;;;;;;;30.30;19.20;;;;;;;0.38;90.28;100588.50;103431;1251;124351;-70
2024/03/19 02:27:58;;;;;;;29.40;19.60;;;;;;;0.37;90.32;100588.83;102759;1251;1003525;-70
2024/03/19 02:30:24;;;;;;;29.50;19.30;;;;;;;0.39;90.41;100591.79;103388;1257;138824;-71
2024/03/19 02:32:50;;;;;;;27.20;18.80;;;;;;;0.40;90.14;100588.20;103615;1256;109632;-70
2024/03/19 02:35:15;;;;;;;;;;;;;;;0.40;90.02;100591.45;103614;1251;97837;-70
2024/03/19 02:37:41;;;;;;;28.80;18.00;;;;;;;0.37;90.02;100600.63;103466;1257;124274;-70
2024/03/19 02:40:07;;;;;;;;;;;;;;;0.35;89.97;100601.77;103558;1255;108097;-70
2024/03/19 02:42:34;;;;;;;28.10;18.70;;;;;;;0.34;90.13;100600.40;103569;1251;124645;-71
2024/03/19 02:45:00;;;;;;;26.10;18.30;;;;;;;0.34;90.22;100600.23;103543;1251;108093;-70
2024/03/19 02:47:27;;;;;;;24.40;16.60;;;;;;;0.37;90.07;100600.30;103411;1251;97840;-70
2024/03/19 02:49:54;;;;;;;23.80;17.60;;;;;;;0.37;89.96;100604.23;103401;1254;138632;-71
2024/03/19 02:52:20;;;;;;;23.80;16.80;;;;;;;0.37;89.95;100604.92;103516;1254;106977;-72
2024/03/19 02:54:45;;;;;;;;;;;;;;;0.37;89.88;100606.46;103440;1251;138373;-70
2024/03/19 02:57:11;;;;;;;24.40;17.10;;;;;;;0.36;89.95;100605.41;103550;1257;107239;-70
2024/03/19 02:59:36;;;;;;;;;;;;;;;0.35;89.83;100609.32;103597;1254;97806;-70
2024/03/19 03:02:02;;;;;;;28.50;18.00;;;;;;;0.33;89.82;100607.58;103407;1252;125047;-72
2024/03/19 03:04:29;;;;;;;23.00;16.70;;;;;;;0.33;89.85;100613.55;103265;1255;1002193;-69
2024/03/19 03:06:55;;;;;;;24.10;17.20;;;;;;;0.30;89.49;100611.81;103459;1252;139020;-72
2024/03/19 03:09:20;;;;;;;;;;;;;;;0.28;89.37;100610.41;103557;1256;107589;-69
2024/03/19 03:11:47;;;;;;;25.80;17.00;;;;;;;0.23;89.31;100615.30;103488;1257;97910;-69
2024/03/19 03:14:11;;;;;;;;;;;;;;;0.17;89.35;100612.30;103470;1251;137975;-71
2024/03/19 03:16:38;;;;;;;26.10;18.50;;;;;;;0.14;89.26;100615.83;103451;1251;108669;-72
2024/03/19 03:19:05;;;;;;;27.10;17.60;;;;;;;0.10;89.23;100620.38;103433;1256;138326;-70
2024/03/19 03:21:31;;;;;;;24.60;17.40;;;;;;;0.05;89.23;100619.80;103512;1251;107435;-70
2024/03/19 03:23:57;;;;;;;25.60;17.10;;;;;;;0.04;89.24;100625.25;103580;1251;97796;-70
2024/03/19 03:26:23;;;;;;;25.20;17.80;;;;;;;-0.01;89.08;100622.95;103577;1251;111348;-70
2024/03/19 03:28:50;;;;;;;27.00;17.00;;;;;;;-0.04;88.98;100623.75;103496;1257;108258;-70
2024/03/19 03:31:14;;;;;;;;;;;;;;;-0.08;88.99;100630.19;103490;1251;138614;-70
2024/03/19 03:33:41;;;;;;;24.50;16.40;;;;;;;-0.13;89.18;100630.96;103600;1251;107726;-70
2024/03/19 03:36:08;;;;;;;25.00;17.30;;;;;;;-0.16;89.14;100633.48;103463;1251;139279;-70
2024/03/19 03:38:35;;;;;;;24.20;16.90;;;;;;;-0.19;89.05;100638.86;103581;1256;111808;-69
2024/03/19 03:41:07;;;;;;;22.40;16.40;;;;;;;-0.23;89.27;100641.53;103466;1256;107353;-70
2024/03/19 03:43:33;;;;;;;23.70;17.00;;;;;;;-0.25;89.18;100644.23;103470;1251;138713;-70
2024/03/19 03:45:59;;;;;;;25.10;16.50;;;;;;;-0.28;89.32;100644.01;103546;1257;106387;-70
2024/03/19 03:48:24;;;;;;;;;;;;;;;-0.29;89.24;100646.05;103394;1251;138768;-70
2024/03/19 03:50:50;;;;;;;24.00;16.70;;;;;;;-0.34;89.23;100647.68;103577;1251;111374;-70
2024/03/19 03:53:15;;;;;;;;;;;;;;;-0.37;89.28;100649.81;103538;1251;107288;-71
2024/03/19 03:55:41;;;;;;;26.50;18.30;;;;;;;-0.40;89.41;100651.98;102611;1257;1003269;-70
2024/03/19 03:58:06;;;;;;;;;;;;;;;-0.42;89.59;100650.92;103490;1251;108537;-71
2024/03/19 04:00:34;;;;;;;24.00;16.30;;;;;;;-0.47;89.53;100644.67;103486;1255;124812;-72
2024/03/19 04:03:01;;;;;;;24.50;16.30;;;;;;;-0.47;89.76;100647.76;103581;1254;111042;-71
2024/03/19 04:05:27;;;;;;;25.30;15.90;;;;;;;-0.47;89.74;100651.52;103552;1251;108447;-71
2024/03/19 04:07:52;;;;;;;;;;;;;;;-0.48;89.59;100652.52;103524;1251;138527;-70
2024/03/19 04:10:18;;;;;;;23.50;15.90;;;;;;;-0.49;89.73;100651.99;103592;1251;107227;-71
2024/03/19 04:12:48;;;;;;;24.30;16.40;;;;;;;-0.50;89.85;100647.89;103350;1254;138785;-71
2024/03/19 04:15:15;;;;;;;25.90;17.20;;;;;;;-0.50;89.87;100650.96;102834;1254;1003211;-71
2024/03/19 04:17:42;;;;;;;23.20;15.90;;;;;;;-0.50;89.82;100654.20;104035;1251;107769;-71
2024/03/19 04:20:11;;;;;;;22.20;15.80;;;;;;;-0.51;89.77;100653.84;103425;1251;140250;-71
2024/03/19 04:22:38;;;;;;;21.40;15.60;;;;;;;-0.50;89.78;100654.72;102819;1252;1003194;-71
2024/03/19 04:25:06;;;;;;;21.10;15.20;;;;;;;-0.51;89.72;100651.28;103461;1254;138892;-71
2024/03/19 04:27:32;;;;;;;22.20;15.00;;;;;;;-0.53;89.52;100648.66;103755;1255;110768;-71
2024/03/19 04:29:59;;;;;;;23.30;16.20;;;;;;;-0.56;89.65;100651.34;103533;1251;108220;-72
2024/03/19 04:32:26;;;;;;;22.70;15.60;;;;;;;-0.58;89.59;100653.86;103407;1254;98426;-71
2024/03/19 04:34:52;;;;;;;20.60;15.10;;;;;;;-0.59;89.88;100657.42;103419;1254;107453;-72
2024/03/19 04:37:17;;;;;;;;;;;;;;;-0.61;89.93;100659.29;103425;1251;138781;-71
2024/03/19 04:39:43;;;;;;;25.20;16.40;;;;;;;-0.63;90.05;100665.21;103544;1251;111283;-72
2024/03/19 04:42:15;;;;;;;21.10;14.10;;;;;;;-0.66;89.83;100664.65;102637;1251;1003239;-71
2024/03/19 04:44:41;;;;;;;22.60;15.80;;;;;;;-0.67;90.01;100663.09;103666;1255;97928;-71
2024/03/19 04:47:06;;;;;;;;;;;;;;;-0.67;90.18;100664.45;103552;1251;108478;-71
2024/03/19 04:49:32;;;;;;;23.00;14.70;;;;;;;-0.69;90.24;100668.86;103484;1251;125621;-70
2024/03/19 04:51:58;;;;;;;21.00;14.10;;;;;;;-0.70;90.34;100671.23;103542;1255;112632;-71
2024/03/19 04:54:25;;;;;;;19.10;13.90;;;;;;;-0.64;90.36;100673.58;103438;1251;140615;-71
2024/03/19 04:56:51;;;;;;;19.90;13.10;;;;;;;-0.53;90.66;100671.20;103564;1256;97807;-71
2024/03/19 04:59:16;;;;;;;;;;;;;;;-0.40;90.66;100670.60;103520;1251;108203;-71
2024/03/19 05:01:42;;;;;;;17.70;12.30;;;;;;;-0.25;90.60;100679.42;103389;1251;124950;-71
2024/03/19 05:04:08;;;;;;;17.70;12.50;;;;;;;-0.05;90.29;100681.69;103647;1251;111362;-71
2024/03/19 05:06:35;;;;;;;18.60;12.20;;;;;;;0.20;90.11;100685.36;103335;1255;139958;-71
2024/03/19 05:09:00;;;;;;;;;;;;;;;0.47;89.78;100688.70;103549;1251;97859;-71
2024/03/19 05:11:26;;;;;;;17.50;12.60;;;;;;;0.64;89.35;100685.20;103529;1251;108065;-71
2024/03/19 05:13:53;;;;;;;19.30;12.30;;;;;;;0.82;89.17;100684.79;104085;1251;137828;-72
2024/03/19 05:16:20;;;;;;;21.20;13.60;;;;;;;1.05;88.97;100682.20;103597;1251;110877;-71
2024/03/19 05:18:48;;;;;;;21.30;13.40;;;;;;;1.25;88.22;100685.54;103438;1251;137978;-71
2024/03/19 05:21:14;;;;;;;20.10;13.70;;;;;;;1.52;87.87;100685.88;103689;1251;97840;-72
2024/03/19 05:23:42;;;;;;;19.90;14.00;;;;;;;1.89;87.34;100688.84;103459;1251;107995;-73
2024/03/19 05:26:09;;;;;;;18.70;13.00;;;;;;;2.32;85.93;100686.65;103526;1256;137983;-73
2024/03/19 05:28:36;;;;;;;15.80;10.90;;;;;;;2.85;84.47;100689.63;103448;1251;110519;-73
2024/03/19 05:31:02;;;;;;;15.50;11.20;;;;;;;3.56;83.42;100689.29;103358;1257;138509;-69
2024/03/19 05:33:29;;;;;;;15.90;11.50;;;;;;;4.42;82.07;100688.39;103500;1251;98426;-71
2024/03/19 05:35:55;;;;;;;14.70;11.20;;;;;;;5.44;80.68;100682.14;103601;1251;110128;-72
2024/03/19 05:38:23;;;;;;;16.70;12.30;;;;;;;6.55;79.31;100683.86;103500;1251;97831;-72
2024/03/19 05:40:49;;;;;;;15.60;11.90;;;;;;;7.66;77.11;100677.27;103433;1254;111248;-73
2024/03/19 05:43:16;;;;;;;15.40;11.70;;;;;;;8.66;74.83;100677.83;103501;1251;138152;-70
2024/03/19 05:45:42;;;;;;;15.30;12.10;;;;;;;9.50;73.02;100675.02;104018;1251;98065;-72
2024/03/19 05:48:08;;;;;;;;;;;;;;;10.28;70.85;100672.22;103452;1258;138203;-73
2024/03/19 05:50:35;;;;;;;17.90;12.90;;;;;;;10.81;68.35;100673.34;104027;1251;97911;-73
2024/03/19 05:53:02;;;;;;;19.50;11.60;;;;;;;11.23;66.89;100670.83;103617;1251;111740;-71
2024/03/19 05:55:29;;;;;;;14.30;11.90;;;;;;;11.69;66.34;100673.85;103450;1255;138353;-73
2024/03/19 05:57:55;;;;;;;14.00;11.10;;;;;;;12.40;65.28;100670.77;103449;1251;97879;-72
2024/03/19 06:00:22;;;;;;;;;;;;;;;13.04;63.85;100666.27;103459;1251;139437;-72
2024/03/19 06:02:49;;;;;;;14.30;11.60;;;;;;;13.59;62.33;100669.54;103875;1256;97687;-71
2024/03/19 06:05:16;;;;;;;13.80;10.60;;;;;;;14.20;61.32;100667.48;103651;1251;111966;-72
2024/03/19 06:07:42;;;;;;;15.10;10.40;;;;;;;14.88;60.64;100663.42;103436;1251;138250;-71
2024/03/19 06:10:11;;;;;;;11.80;9.60;;;;;;;15.48;59.00;100664.09;103622;1251;97985;-71
2024/03/19 06:12:38;;;;;;;9.90;8.90;;;;;;;16.02;57.68;100663.70;104018;1251;138155;-71
2024/03/19 06:15:07;;;;;;;10.80;9.30;;;;;;;16.58;56.09;100659.89;103723;1254;97834;-72
2024/03/19 06:17:34;;;;;;;11.20;8.70;;;;;;;17.07;54.99;100658.25;103811;1251;111474;-73
2024/03/19 06:20:00;;;;;;;12.50;9.10;;;;;;;17.59;53.86;100658.46;103296;1256;138115;-73
2024/03/19 06:22:27;;;;;;;10.30;9.00;;;;;;;17.91;51.77;100656.86;103421;1254;98021;-74
2024/03/19 06:24:54;;;;;;;10.90;8.70;;;;;;;18.04;51.19;100660.00;103460;1255;137797;-72
2024/03/19 06:27:20;;;;;;;8.80;7.70;;;;;;;18.44;50.75;100657.69;103597;1251;97809;-74
2024/03/19 06:29:47;;;;;;;10.60;8.70;;;;;;;18.65;48.83;100658.94;103728;1251;111622;-73
2024/03/19 06:32:16;;;;;;;9.70;8.40;;;;;;;18.93;48.12;100659.20;103335;1251;137959;-75
2024/03/19 06:34:43;;;;;;;9.50;8.50;;;;;;;19.34;47.84;100661.13;103480;1251;98549;-74
2024/03/19 06:37:11;;;;;;;9.60;8.60;;;;;;;19.78;46.11;100659.59;103336;1251;137733;-73
2024/03/19 06:39:38;;;;;;;9.40;8.40;;;;;;;20.06;46.15;100666.65;103563;1251;97826;-72
2024/03/19 06:42:06;;;;;;;10.10;8.40;;;;;;;20.56;46.12;100663.19;103502;1251;137850;-72
2024/03/19 06:44:33;;;;;;;9.20;8.30;;;;;;;21.30;44.73;100655.43;103688;1251;107917;-73
2024/03/19 06:47:00;;;;;;;10.60;9.10;;;;;;;21.68;43.52;100656.29;103559;1255;97902;-71
2024/03/19 06:49:27;;;;;;;13.20;8.90;;;;;;;22.01;42.43;100657.10;103363;1251;138132;-71
2024/03/19 06:51:54;;;;;;;10.30;9.00;;;;;;;22.51;43.03;100659.23;103454;1254;97790;-72
2024/03/19 06:54:21;;;;;;;11.60;9.80;;;;;;;23.33;42.95;100655.52;103216;1256;138227;-73
2024/03/19 06:56:48;;;;;;;10.00;8.70;;;;;;;23.96;41.61;100661.14;103364;1251;107988;-73
2024/03/19 06:59:15;;;;;;;15.20;9.00;;;;;;;24.45;40.98;100658.38;103391;1251;98182;-73
2024/03/19 07:01:41;;;;;;;12.60;8.20;;;;;;;24.83;39.78;100653.88;103243;1255;137980;-73
2024/03/19 07:04:08;;;;;;;12.40;8.50;;;;;;;24.92;38.55;100659.19;103422;1255;97844;-74
2024/03/19 07:06:36;;;;;;;10.00;8.50;;;;;;;25.10;37.63;100667.57;103350;1255;138030;-72
2024/03/19 07:09:04;;;;;;;12.40;8.60;;;;;;;25.33;38.03;100669.18;103502;1255;108888;-73
2024/03/19 07:11:30;;;;;;;9.90;8.80;;;;;;;25.55;37.08;100670.23;103917;1251;97910;-73
2024/03/19 07:13:58;;;;;;;9.50;8.10;;;;;;;25.00;36.29;100672.76;103428;1255;137713;-74
2024/03/19 07:16:25;;;;;;;10.50;8.40;;;;;;;24.61;36.18;100675.30;103443;1251;97891;-74
2024/03/19 07:18:51;;;;;;;9.40;8.50;;;;;;;24.50;36.47;100680.20;103398;1251;137752;-76
2024/03/19 07:21:18;;;;;;;9.50;8.30;;;;;;;24.59;36.03;100682.11;103372;1256;107824;-75
2024/03/19 07:23:44;;;;;;;11.00;8.30;;;;;;;24.83;35.71;100676.66;103379;1255;97863;-76
2024/03/19 07:26:11;;;;;;;9.20;8.30;;;;;;;24.84;34.91;100680.35;103367;1253;138735;-74
2024/03/19 07:28:38;;;;;;;9.40;8.50;;;;;;;24.66;34.59;100686.29;103393;1251;97837;-76
2024/03/19 07:31:06;;;;;;;9.70;8.40;;;;;;;24.61;34.85;100688.32;103190;1251;137835;-75
2024/03/19 07:33:32;;;;;;;8.90;8.10;;;;;;;24.82;34.80;100687.05;103442;1251;106734;-75
2024/03/19 07:35:59;;;;;;;8.70;7.80;;;;;;;24.72;33.97;100691.98;103480;1252;98428;-76
2024/03/19 07:38:25;;;;;;;8.40;7.60;;;;;;;24.17;34.22;100695.98;103375;1252;107970;-77
2024/03/19 07:40:52;;;;;;;9.60;8.20;;;;;;;23.92;33.89;100697.38;103359;1252;97847;-76
2024/03/19 07:43:19;;;;;;;9.10;8.20;;;;;;;23.99;34.09;100702.30;103297;1253;137812;-76
2024/03/19 07:45:45;;;;;;;8.40;7.50;;;;;;;24.16;34.05;100703.89;103412;1253;106665;-75
2024/03/19 07:48:12;;;;;;;10.00;7.60;;;;;;;24.32;34.19;100703.30;103390;1251;138082;-75
2024/03/19 07:50:39;;;;;;;9.80;11.60;;;;;;;24.55;33.44;100703.40;103517;1251;107019;-76
2024/03/19 07:53:06;;;;;;;39.10;9.60;;;;;;;24.59;33.70;100700.73;103473;1255;97904;-75
2024/03/19 07:55:32;;;;;;;9.20;7.60;;;;;;;25.01;33.94;100699.66;103390;1256;137908;-76
2024/03/19 07:58:00;;;;;;;11.40;7.30;;;;;;;25.22;32.90;100700.86;103474;1251;107258;-75
2024/03/19 08:00:27;;;;;;;124.30;15.90;;;;;;;25.42;32.88;100702.16;103385;1251;138135;-74
2024/03/19 08:02:54;;;;;;;289.60;29.80;;;;;;;25.57;32.33;100707.09;103471;1252;107563;-75
2024/03/19 08:05:21;;;;;;;25.40;9.40;;;;;;;25.49;31.87;100705.84;103466;1251;96488;-75
2024/03/19 08:07:48;;;;;;;108.20;14.60;;;;;;;24.93;31.33;100706.92;103372;1254;137922;-75
2024/03/19 08:10:14;;;;;;;189.50;21.60;;;;;;;23.48;31.01;100711.80;103406;1256;107623;-76
2024/03/19 08:12:41;;;;;;;180.50;22.60;;;;;;;21.94;31.77;100715.48;103288;1251;138557;-76
2024/03/19 08:15:10;;;;;;;55.20;11.70;;;;;;;20.88;33.16;100718.45;103442;1251;107388;-75
2024/03/19 08:17:37;;;;;;;70.90;10.70;;;;;;;20.08;33.44;100720.18;103518;1251;98064;-75
2024/03/19 08:20:08;;;;;;;72.80;11.70;;;;;;;19.38;34.09;100717.15;103399;1251;138193;-75
2024/03/19 08:22:35;;;;;;;120.20;16.30;;;;;;;18.80;34.86;100726.95;103407;1251;109537;-74
2024/03/19 08:25:04;;;;;;;27.20;8.20;;;;;;;18.38;35.41;100726.04;103407;1250;138302;-75
2024/03/19 08:27:30;;;;;;;16.70;8.00;;;;;;;18.29;35.91;100723.35;103444;1251;107468;-75
2024/03/19 08:29:58;;;;;;;92.10;13.10;;;;;;;18.42;35.72;100723.89;103482;1251;97666;-75
2024/03/19 08:32:26;;;;;;;17.10;7.50;;;;;;;17.65;35.84;100722.29;103385;1253;110826;-76
2024/03/19 08:34:53;;;;;;;34.40;8.30;;;;;;;16.60;36.35;100731.76;103223;1253;107866;-75
2024/03/19 08:37:19;;;;;;;63.50;13.00;;;;;;;15.65;37.47;100732.38;103140;1254;138177;-76
2024/03/19 08:39:46;;;;;;;28.20;9.00;;;;;;;15.13;38.73;100739.42;103261;1256;107179;-75
2024/03/19 08:42:12;;;;;;;34.40;8.50;;;;;;;14.70;39.14;100734.08;103196;1252;139823;-74
2024/03/19 08:44:39;;;;;;;120.00;14.40;;;;;;;13.99;39.23;100737.40;103373;1256;111556;-75
2024/03/19 08:47:06;;;;;;;15.40;7.70;;;;;;;13.20;39.94;100739.77;103347;1256;108919;-75
2024/03/19 08:49:32;;;;;;;115.30;16.80;;;;;;;12.35;40.81;100748.86;103177;1252;138192;-74
2024/03/19 08:51:59;;;;;;;30.00;10.30;;;;;;;11.59;42.06;100751.45;103270;1252;107829;-75
2024/03/19 08:54:26;;;;;;;59.90;13.20;;;;;;;10.97;43.25;100760.61;103272;1252;138889;-74
2024/03/19 08:56:53;;;;;;;232.50;27.10;;;;;;;10.81;44.40;100761.02;103502;1252;110512;-73
2024/03/19 08:59:20;;;;;;;140.00;16.80;;;;;;;10.81;44.78;100755.80;103428;1252;107641;-73
2024/03/19 09:01:47;;;;;;;24.60;7.90;;;;;;;10.53;44.96;100760.14;103263;1252;138561;-73
2024/03/19 09:04:13;;;;;;;147.20;16.30;;;;;;;10.29;45.21;100757.91;103440;1255;107789;-73
2024/03/19 09:06:40;;;;;;;53.80;9.90;;;;;;;9.95;45.55;100758.10;103756;1251;138685;-74
2024/03/19 09:09:07;;;;;;;194.20;16.30;;;;;;;9.45;45.97;100764.87;103391;1251;110947;-74
2024/03/19 09:11:34;;;;;;;78.10;11.10;;;;;;;9.10;46.76;100766.90;103401;1251;108013;-75
2024/03/19 09:14:01;;;;;;;69.40;9.80;;;;;;;8.75;47.29;100774.80;103458;1255;138129;-74
2024/03/19 09:16:26;;;;;;;;;;;;;;;8.45;47.82;100773.35;103425;1252;108198;-74
2024/03/19 09:18:53;;;;;;;63.00;11.40;;;;;;;8.17;48.51;100768.87;103307;1251;125239;-74
2024/03/19 09:21:19;;;;;;;107.40;13.30;;;;;;;7.86;48.79;100771.35;103275;1255;110498;-75
2024/03/19 09:23:46;;;;;;;94.20;13.90;;;;;;;7.67;49.44;100767.45;103370;1255;106035;-74
2024/03/19 09:26:13;;;;;;;25.30;8.30;;;;;;;7.42;49.95;100770.15;103339;1251;138366;-74
2024/03/19 09:28:38;;;;;;;;;;;;;;;7.15;50.61;100775.63;103443;1251;107159;-75
2024/03/19 09:31:04;;;;;;;141.90;14.30;;;;;;;6.93;51.03;100775.82;103333;1251;123919;-76
2024/03/19 09:33:31;;;;;;;186.10;20.10;;;;;;;6.78;51.69;100778.89;103660;1251;110251;-74
2024/03/19 09:35:58;;;;;;;125.70;14.90;;;;;;;6.68;52.21;100781.92;103400;1254;106709;-74
2024/03/19 09:38:23;;;;;;;;;;;;;;;6.67;52.67;100785.73;103289;1257;137773;-74
2024/03/19 09:40:55;;;;;;;230.90;19.80;;;;;;;6.74;52.67;100780.13;103305;1252;106677;-74
2024/03/19 09:43:24;;;;;;;176.10;17.70;;;;;;;6.85;52.87;100785.41;103322;1251;137960;-74
2024/03/19 09:45:51;;;;;;;57.00;10.20;;;;;;;6.90;52.92;100786.23;103464;1251;111230;-75
2024/03/19 09:48:19;;;;;;;105.30;11.60;;;;;;;7.00;53.10;100787.69;103290;1251;138041;-75
2024/03/19 09:50:46;;;;;;;124.70;14.10;;;;;;;7.30;53.23;100781.86;103479;1251;97795;-75
2024/03/19 09:53:21;;;;;;;119.70;11.50;;;;;;;7.84;52.91;100775.38;103466;1251;105768;-74
2024/03/19 09:55:48;;;;;;;36.30;8.80;;;;;;;8.21;52.05;100777.47;103367;1251;138270;-75
2024/03/19 09:58:15;;;;;;;25.80;7.30;;;;;;;8.29;51.45;100775.98;103408;1251;110469;-75
2024/03/19 10:00:45;;;;;;;19.60;7.00;;;;;;;8.55;51.59;100777.36;103261;1251;138217;-74
2024/03/19 10:03:11;;;;;;;9.90;6.00;;;;;;;9.01;51.33;100768.63;103978;1252;97802;-74
2024/03/19 10:05:38;;;;;;;29.40;8.10;;;;;;;9.79;50.89;100763.13;103469;1251;108843;-75
2024/03/19 10:08:04;;;;;;;;;;;;;;;10.76;49.59;100758.55;103512;1251;138919;-74
2024/03/19 10:10:32;;;;;;;10.40;6.60;;;;;;;11.40;48.62;100758.08;103715;1255;111073;-77
2024/03/19 10:12:59;;;;;;;10.10;5.70;;;;;;;11.64;47.74;100748.52;103383;1251;138150;-76
2024/03/19 10:15:27;;;;;;;7.30;5.40;;;;;;;11.66;46.64;100753.52;103537;1251;97780;-76
2024/03/19 10:17:56;;;;;;;8.80;5.80;;;;;;;11.56;46.39;100756.09;103509;1251;106862;-76
2024/03/19 10:20:25;;;;;;;7.90;5.20;;;;;;;11.56;46.17;100752.40;103358;1252;137647;-76
2024/03/19 10:22:54;;;;;;;12.60;5.90;;;;;;;11.76;45.72;100750.98;103437;1251;112616;-76
2024/03/19 10:25:21;;;;;;;8.20;5.70;;;;;;;11.78;45.68;100742.91;103378;1251;138032;-75
2024/03/19 10:27:49;;;;;;;10.60;5.40;;;;;;;11.64;45.25;100747.13;103512;1251;97701;-75
2024/03/19 10:30:17;;;;;;;7.90;5.90;;;;;;;11.47;45.30;100755.97;103392;1251;140209;-76
2024/03/19 10:32:45;;;;;;;13.40;6.40;;;;;;;11.62;46.01;100753.30;103465;1251;98920;-76
2024/03/19 10:35:19;;;;;;;32.30;7.70;;;;;;;12.32;46.39;100750.70;103494;1252;111474;-76
2024/03/19 10:37:48;;;;;;;46.90;6.60;;;;;;;13.14;45.95;100742.92;104041;1252;138577;-75
2024/03/19 10:40:16;;;;;;;17.20;5.30;;;;;;;13.94;46.13;100739.70;103814;1251;97826;-65
2024/03/19 10:42:44;;;;;;;83.60;11.10;;;;;;;14.68;45.53;100737.98;103572;1252;140450;-67
2024/03/19 10:45:19;;;;;;;89.30;11.50;;;;;;;15.49;45.54;100735.72;103718;1256;97894;-70
2024/03/19 10:47:47;;;;;;;15.10;5.80;;;;;;;16.14;43.75;100731.02;103513;1253;111080;-72
2024/03/19 10:50:16;;;;;;;9.50;5.20;;;;;;;16.12;42.22;100737.23;103225;1257;138132;-71
2024/03/19 10:52:47;;;;;;;6.30;4.80;;;;;;;16.13;41.67;100738.41;103362;1256;98222;-71
2024/03/19 10:55:16;;;;;;;8.00;5.00;;;;;;;16.46;41.42;100741.89;103273;1255;137639;-71
2024/03/19 10:57:43;;;;;;;6.80;4.70;;;;;;;16.87;41.44;100737.45;103360;1252;97896;-73
2024/03/19 11:00:22;;;;;;;9.60;4.90;;;;;;;17.11;40.28;100728.70;103323;1252;162303;-72
2024/03/19 11:02:57;;;;;;;8.90;5.70;;;;;;;17.00;39.60;100732.25;103423;1256;108573;-73
2024/03/19 11:05:24;;;;;;;12.10;5.50;;;;;;;16.47;38.75;100736.42;103356;1254;97800;-71
2024/03/19 11:07:52;;;;;;;5.10;4.70;;;;;;;15.88;39.25;100733.31;103233;1254;138283;-72